Dawson, North Dakota
Current Conditions -  °F | °C
As of 2:05 AM on Saturday 20 Dec 2014 (Local Time) from KBIS Reporting Station
Haze Haze  
Wind Chill:   Ceiling: 200
Heat Index: 15°   Visibility: 1mi
Dew Point: 14°   Wind: 5mph
Humidity: 95%   Direction: 60°ENE
Pressure: 29.95"   Gusts: NA
Location:  46.87°N, 99.75°W
Report Text: KBIS 200805Z AUTO 06004KT 1SM R31/6000VP6000FT BR OVC002 M09/M10 A2995 RMK AO2 T10941100
Loading
Personal Weather Stations






























Interactive Weather Map New forecast layout! Learn more

10-Day Weather Forecast

Advertisements
Track Severe Weather on mobile